createdAt,value
2018-05-17T00:00:08.898Z,69.3
2018-05-17T00:00:50.975Z,69.49
2018-05-17T00:01:33.505Z,69.2
2018-05-17T00:02:15.260Z,69.49
2018-05-17T00:02:56.205Z,69.78
2018-05-17T00:03:37.241Z,70.17
2018-05-17T00:04:18.398Z,70.07
2018-05-17T00:05:00.328Z,69.68
2018-05-17T00:05:42.834Z,69.59
2018-05-17T00:06:23.977Z,70.36
2018-05-17T00:07:05.123Z,69.87
2018-05-17T00:07:46.038Z,69.97
2018-05-17T00:08:26.988Z,70.26
2018-05-17T00:09:08.899Z,70.17
2018-05-17T00:09:50.520Z,70.17
2018-05-17T00:10:34.537Z,70.26
2018-05-17T00:11:16.703Z,70.17
2018-05-17T00:11:57.761Z,69.87
2018-05-17T00:12:39.293Z,69.97
2018-05-17T00:13:21.241Z,69.97
2018-05-17T00:14:03.134Z,70.17
2018-05-17T00:14:44.723Z,70.07
2018-05-17T00:15:26.582Z,69.93
2018-05-17T00:16:07.442Z,70.9
2018-05-17T00:16:48.570Z,70.61
2018-05-17T00:17:29.742Z,70.74
2018-05-17T00:18:10.730Z,70.7
2018-05-17T00:18:52.423Z,70.42
2018-05-17T00:19:33.608Z,70.55
2018-05-17T00:20:15.131Z,70.7
2018-05-17T00:20:58.686Z,70.45
2018-05-17T00:21:39.789Z,70.55
2018-05-17T00:22:20.344Z,70.51
2018-05-17T00:23:00.908Z,70.23
2018-05-17T00:23:41.474Z,70.61
2018-05-17T00:24:22.036Z,70.42
2018-05-17T00:25:02.613Z,70.61
2018-05-17T00:25:43.173Z,70.23
2018-05-17T00:26:23.739Z,70.42
2018-05-17T00:27:04.309Z,70.51
2018-05-17T00:27:44.881Z,70.7
2018-05-17T00:28:25.442Z,70.32
2018-05-17T00:29:06.027Z,70.9
2018-05-17T00:29:46.596Z,70.51
2018-05-17T00:30:27.155Z,70.51
2018-05-17T00:31:07.714Z,70.7
2018-05-17T00:31:48.269Z,70.8
2018-05-17T00:32:28.850Z,70.9
2018-05-17T00:33:09.413Z,70.8
2018-05-17T00:33:49.999Z,70.51
2018-05-17T00:34:30.572Z,71.19
2018-05-17T00:35:11.131Z,71.09
2018-05-17T00:35:51.698Z,71.09
2018-05-17T00:36:32.249Z,71.47
2018-05-17T00:37:12.822Z,71.47
2018-05-17T00:37:53.358Z,71.37
2018-05-17T00:38:33.927Z,71.19
2018-05-17T00:39:14.484Z,71.66
2018-05-17T00:39:55.059Z,71.76
2018-05-17T00:40:35.721Z,71.57
2018-05-17T00:41:16.181Z,71.47
2018-05-17T00:41:56.764Z,71.66
2018-05-17T00:42:37.357Z,71.66
2018-05-17T00:43:17.935Z,71.86
2018-05-17T00:43:58.494Z,71.95
2018-05-17T00:44:39.108Z,71.76
2018-05-17T00:45:19.658Z,72.24
2018-05-17T00:46:00.248Z,72.05
2018-05-17T00:46:40.807Z,71.95
2018-05-17T00:47:21.384Z,71.95
2018-05-17T00:48:01.932Z,71.86
2018-05-17T00:48:42.507Z,72.24
2018-05-17T00:49:23.099Z,72.24
2018-05-17T00:50:03.649Z,71.95
2018-05-17T00:50:44.220Z,72.14
2018-05-17T00:51:24.794Z,71.76
2018-05-17T00:52:05.350Z,72.05
2018-05-17T00:52:45.914Z,72.14
2018-05-17T00:53:26.475Z,71.86
2018-05-17T00:54:07.046Z,72.05
2018-05-17T00:54:47.612Z,72.05
2018-05-17T00:55:28.202Z,72.05
2018-05-17T00:56:08.774Z,72.05
2018-05-17T00:56:49.324Z,72.24
2018-05-17T00:57:29.891Z,71.95
2018-05-17T00:58:10.466Z,72.53
2018-05-17T00:58:51.036Z,72.11
2018-05-17T00:59:31.603Z,72.63
2018-05-17T01:00:12.177Z,72.43
2018-05-17T01:00:52.776Z,72.43
2018-05-17T01:01:33.338Z,72.81
2018-05-17T01:02:13.898Z,72.78
2018-05-17T01:02:54.490Z,72.49
2018-05-17T01:03:35.071Z,72.68
2018-05-17T01:04:15.636Z,72.63
2018-05-17T01:04:56.205Z,72.78
2018-05-17T01:05:36.783Z,72.63
2018-05-17T01:06:17.332Z,72.49
2018-05-17T01:06:57.896Z,72.59
2018-05-17T01:07:38.457Z,72.63
2018-05-17T01:08:19.016Z,72.63
2018-05-17T01:08:59.604Z,72.63
2018-05-17T01:09:40.167Z,72.11
2018-05-17T01:10:20.753Z,72.88
2018-05-17T01:11:01.317Z,72.59
2018-05-17T01:11:41.878Z,73.07
2018-05-17T01:12:22.445Z,72.78
2018-05-17T01:13:03.006Z,72.78
2018-05-17T01:13:43.557Z,72.59
2018-05-17T01:14:24.120Z,73.07
2018-05-17T01:15:04.729Z,73.07
2018-05-17T01:15:45.295Z,72.68
2018-05-17T01:16:25.838Z,73.07
2018-05-17T01:17:06.394Z,73.07
2018-05-17T01:17:46.960Z,73.07
2018-05-17T01:18:27.535Z,72.68
2018-05-17T01:19:08.103Z,72.88
2018-05-17T01:19:48.646Z,72.59
2018-05-17T01:20:29.214Z,72.59
2018-05-17T01:21:09.766Z,72.88
2018-05-17T01:21:50.329Z,72.49
2018-05-17T01:22:30.891Z,72.39
2018-05-17T01:23:11.465Z,72.59
2018-05-17T01:23:52.018Z,72.59
2018-05-17T01:24:32.606Z,72.68
2018-05-17T01:25:13.175Z,72.39
2018-05-17T01:25:53.776Z,72.78
2018-05-17T01:26:34.346Z,72.59
2018-05-17T01:27:14.916Z,72.49
2018-05-17T01:27:55.493Z,73.07
2018-05-17T01:28:36.055Z,72.68
2018-05-17T01:29:16.702Z,72.78
2018-05-17T01:29:57.212Z,72.88
2018-05-17T01:30:37.761Z,73.35
2018-05-17T01:31:18.368Z,72.97
2018-05-17T01:31:58.978Z,73.07
2018-05-17T01:32:39.551Z,72.59
2018-05-17T01:33:20.138Z,72.49
2018-05-17T01:34:00.688Z,72.49
2018-05-17T01:34:41.221Z,72.59
2018-05-17T01:35:21.783Z,72.59
2018-05-17T01:36:02.343Z,72.11
2018-05-17T01:36:42.908Z,72.39
2018-05-17T01:37:23.488Z,72.68
2018-05-17T01:38:04.037Z,72.49
2018-05-17T01:38:44.586Z,72.49
2018-05-17T01:39:25.158Z,72.49
2018-05-17T01:40:05.725Z,72.68
2018-05-17T01:40:46.301Z,72.68
2018-05-17T01:41:26.889Z,72.68
2018-05-17T01:42:07.498Z,72.59
2018-05-17T01:42:48.009Z,72.49
2018-05-17T01:43:28.593Z,72.3
2018-05-17T01:44:09.185Z,72.39
2018-05-17T01:44:49.734Z,72.2
2018-05-17T01:45:30.328Z,72.3
2018-05-17T01:46:10.911Z,73.07
2018-05-17T01:46:51.482Z,72.97
2018-05-17T01:47:32.031Z,72.39
2018-05-17T01:48:12.608Z,72.3
2018-05-17T01:48:53.141Z,72.88
2018-05-17T01:49:33.758Z,72.68
2018-05-17T01:50:14.335Z,72.88
2018-05-17T01:50:54.905Z,72.88
2018-05-17T01:51:35.485Z,72.68
2018-05-17T01:52:16.065Z,72.78
2018-05-17T01:52:56.653Z,72.68
2018-05-17T01:53:37.208Z,73.07
2018-05-17T01:54:17.779Z,73.07
2018-05-17T01:54:58.340Z,73.16
2018-05-17T01:55:38.899Z,72.97
2018-05-17T01:56:19.465Z,72.78
2018-05-17T01:57:00.048Z,73.35
2018-05-17T01:57:40.606Z,72.68
2018-05-17T01:58:21.192Z,72.59
2018-05-17T01:59:01.746Z,72.78
2018-05-17T01:59:42.321Z,72.3
2018-05-17T02:00:22.889Z,72.78
2018-05-17T02:01:03.432Z,72.84
2018-05-17T02:01:44.011Z,72.55
2018-05-17T02:02:24.571Z,73.03
2018-05-17T02:03:05.134Z,73.13
2018-05-17T02:03:45.686Z,73.22
2018-05-17T02:04:26.249Z,72.55
2018-05-17T02:05:06.831Z,72.84
2018-05-17T02:05:47.408Z,72.84
2018-05-17T02:06:28.053Z,72.74
2018-05-17T02:07:08.614Z,72.64
2018-05-17T02:07:49.185Z,73.22
2018-05-17T02:08:29.753Z,73.03
2018-05-17T02:09:10.326Z,73.26
2018-05-17T02:09:50.883Z,73.16
2018-05-17T02:10:31.484Z,73.22
2018-05-17T02:11:12.051Z,72.74
2018-05-17T02:11:52.614Z,72.94
2018-05-17T02:12:33.173Z,72.74
2018-05-17T02:13:13.725Z,72.84
2018-05-17T02:13:54.264Z,73.03
2018-05-17T02:14:34.847Z,72.74
2018-05-17T02:15:15.415Z,73.13
2018-05-17T02:15:55.975Z,73.13
2018-05-17T02:16:36.535Z,73.51
2018-05-17T02:17:17.107Z,73.61
2018-05-17T02:17:57.665Z,73.99
2018-05-17T02:18:38.233Z,73.8
2018-05-17T02:19:18.928Z,73.9
2018-05-17T02:19:59.358Z,73.51
2018-05-17T02:20:39.926Z,73.7
2018-05-17T02:21:20.493Z,74.18
2018-05-17T02:22:01.050Z,74.37
2018-05-17T02:22:41.667Z,74.27
2018-05-17T02:23:22.234Z,74.37
2018-05-17T02:24:02.809Z,74.47
2018-05-17T02:24:43.388Z,74.47
2018-05-17T02:25:24.003Z,74.18
2018-05-17T02:26:04.587Z,74.08
2018-05-17T02:26:45.146Z,73.9
2018-05-17T02:27:25.716Z,74.57
2018-05-17T02:28:06.269Z,74.18
2018-05-17T02:28:46.843Z,74.37
2018-05-17T02:29:27.419Z,74.47
2018-05-17T02:30:08.079Z,73.99
2018-05-17T02:30:48.567Z,73.7
2018-05-17T02:31:29.115Z,73.9
2018-05-17T02:32:09.681Z,73.9
2018-05-17T02:32:50.253Z,73.9
2018-05-17T02:33:30.832Z,74.08
2018-05-17T02:34:11.403Z,74.08
2018-05-17T02:34:51.969Z,74.37
2018-05-17T02:35:32.537Z,74.37
2018-05-17T02:36:13.103Z,74.18
2018-05-17T02:36:53.666Z,74.37
2018-05-17T02:37:34.236Z,74.27
2018-05-17T02:38:14.806Z,74.66
2018-05-17T02:38:55.361Z,74.27
2018-05-17T02:39:35.934Z,74.57
2018-05-17T02:40:16.527Z,74.18
2018-05-17T02:40:57.100Z,74.27
2018-05-17T02:41:37.653Z,74.85
2018-05-17T02:42:18.212Z,74.37
2018-05-17T02:42:58.782Z,74.37
2018-05-17T02:43:39.335Z,74.27
2018-05-17T02:44:19.902Z,74.37
2018-05-17T02:45:00.465Z,74.76
2018-05-17T02:45:41.046Z,74.76
2018-05-17T02:46:21.645Z,74.85
2018-05-17T02:47:02.241Z,75.04
2018-05-17T02:47:42.817Z,75.04
2018-05-17T02:48:23.374Z,74.95
2018-05-17T02:49:03.976Z,74.76
2018-05-17T02:49:44.544Z,75.14
2018-05-17T02:50:25.094Z,75.14
2018-05-17T02:51:05.665Z,74.85
2018-05-17T02:51:46.234Z,75.33
2018-05-17T02:52:26.797Z,75.23
2018-05-17T02:53:07.358Z,75.2
2018-05-17T02:53:47.911Z,75.14
2018-05-17T02:54:28.481Z,75.33
2018-05-17T02:55:09.065Z,75.2
2018-05-17T02:55:49.654Z,75.68
2018-05-17T02:56:30.230Z,75.71
2018-05-17T02:57:10.823Z,75.71
2018-05-17T02:57:51.384Z,75.9
2018-05-17T02:58:31.975Z,75.71
2018-05-17T02:59:12.553Z,75.48
2018-05-17T02:59:53.119Z,75.52
2018-05-17T03:00:33.680Z,75.39
2018-05-17T03:01:14.290Z,76.15
2018-05-17T03:01:54.891Z,76.44
2018-05-17T03:02:35.458Z,76.15
2018-05-17T03:03:16.039Z,76.06
2018-05-17T03:03:56.590Z,76.15
2018-05-17T03:04:37.177Z,76.35
2018-05-17T03:05:17.753Z,76.35
2018-05-17T03:05:58.306Z,76.44
2018-05-17T03:06:38.889Z,76.35
2018-05-17T03:07:19.505Z,76.54
2018-05-17T03:08:00.051Z,76.15
2018-05-17T03:08:40.609Z,76.73
2018-05-17T03:09:21.178Z,76.64
2018-05-17T03:10:01.744Z,76.25
2018-05-17T03:10:42.307Z,76.48
2018-05-17T03:11:22.872Z,76.44
2018-05-17T03:12:03.432Z,76.35
2018-05-17T03:12:43.989Z,76.35
2018-05-17T03:13:24.558Z,76.64
2018-05-17T03:14:05.126Z,76.64
2018-05-17T03:14:45.683Z,77.11
2018-05-17T03:15:26.229Z,76.92
2018-05-17T03:16:06.764Z,77.11
2018-05-17T03:16:47.321Z,77.11
2018-05-17T03:17:27.889Z,77.11
2018-05-17T03:18:08.475Z,77.21
2018-05-17T03:18:49.016Z,76.92
2018-05-17T03:19:29.599Z,77.21
2018-05-17T03:20:10.226Z,77.11
2018-05-17T03:20:50.771Z,77.31
2018-05-17T03:21:31.374Z,77.11
2018-05-17T03:22:11.891Z,77.5
2018-05-17T03:22:52.453Z,77.11
2018-05-17T03:23:33.020Z,76.73
2018-05-17T03:24:13.582Z,76.73
2018-05-17T03:24:54.147Z,76.73
2018-05-17T03:25:34.716Z,76.92
2018-05-17T03:26:15.257Z,77.31
2018-05-17T03:26:55.838Z,77.11
2018-05-17T03:27:36.387Z,77.21
2018-05-17T03:28:16.945Z,77.02
2018-05-17T03:28:57.530Z,77.21
2018-05-17T03:29:38.117Z,77.02
2018-05-17T03:30:18.692Z,77.5
2018-05-17T03:30:59.246Z,77.31
2018-05-17T03:31:39.783Z,77.4
2018-05-17T03:32:20.364Z,77.5
2018-05-17T03:33:00.911Z,77.31
2018-05-17T03:33:41.468Z,77.02
2018-05-17T03:34:22.049Z,77.5
2018-05-17T03:35:02.625Z,77.4
2018-05-17T03:35:43.189Z,77.21
2018-05-17T03:36:23.740Z,77.4
2018-05-17T03:37:04.309Z,77.5
2018-05-17T03:37:44.886Z,77.78
2018-05-17T03:38:25.444Z,77.5
2018-05-17T03:39:06.031Z,77.31
2018-05-17T03:39:46.615Z,77.4
2018-05-17T03:40:27.142Z,77.21
2018-05-17T03:41:07.751Z,77.11
2018-05-17T03:41:48.312Z,78.27
2018-05-17T03:42:28.876Z,77.88
2018-05-17T03:43:09.457Z,77.78
2018-05-17T03:43:50.006Z,77.21
2018-05-17T03:44:30.573Z,77.31
2018-05-17T03:45:11.151Z,77.11
2018-05-17T03:45:51.740Z,77.5
2018-05-17T03:46:32.297Z,77.59
2018-05-17T03:47:12.879Z,77.97
2018-05-17T03:47:53.488Z,77.59
2018-05-17T03:48:34.073Z,77.78
2018-05-17T03:49:14.637Z,77.88
2018-05-17T03:49:55.190Z,77.78
2018-05-17T03:50:35.755Z,77.78
2018-05-17T03:51:16.323Z,77.78
2018-05-17T03:51:56.902Z,77.5
2018-05-17T03:52:37.464Z,77.97
2018-05-17T03:53:18.034Z,77.59
2018-05-17T03:53:58.594Z,77.78
2018-05-17T03:54:39.178Z,77.5
2018-05-17T03:55:19.746Z,77.69
2018-05-17T03:56:00.305Z,77.94
2018-05-17T03:56:40.862Z,77.75
2018-05-17T03:57:21.433Z,77.69
2018-05-17T03:58:01.996Z,77.78
2018-05-17T03:58:42.570Z,77.88
2018-05-17T03:59:23.165Z,77.4
2018-05-17T04:00:03.714Z,76.64
2018-05-17T04:00:44.288Z,77.11
2018-05-17T04:01:24.863Z,76.79
2018-05-17T04:02:05.407Z,76.73
2018-05-17T04:02:45.957Z,76.4
2018-05-17T04:03:26.526Z,76.79
2018-05-17T04:04:07.113Z,76.4
2018-05-17T04:04:47.698Z,76.31
2018-05-17T04:05:28.262Z,76.44
2018-05-17T04:06:08.826Z,76.31
2018-05-17T04:06:49.379Z,76.25
2018-05-17T04:07:29.952Z,76.6
2018-05-17T04:08:10.523Z,75.93
2018-05-17T04:08:51.094Z,75.83
2018-05-17T04:09:31.674Z,76.02
2018-05-17T04:10:12.235Z,75.93
2018-05-17T04:10:52.814Z,76.12
2018-05-17T04:11:33.421Z,76.12
2018-05-17T04:12:13.992Z,75.93
2018-05-17T04:12:54.539Z,76.12
2018-05-17T04:13:35.135Z,75.83
2018-05-17T04:14:15.697Z,76.02
2018-05-17T04:14:56.258Z,75.93
2018-05-17T04:15:36.864Z,76.5
2018-05-17T04:16:17.441Z,76.02
2018-05-17T04:16:58.001Z,75.35
2018-05-17T04:17:38.540Z,75.54
2018-05-17T04:18:19.098Z,75.35
2018-05-17T04:18:59.653Z,74.87
2018-05-17T04:19:40.233Z,74.68
2018-05-17T04:20:20.793Z,74.97
2018-05-17T04:21:01.357Z,74.87
2018-05-17T04:21:41.931Z,74.68
2018-05-17T04:22:22.468Z,74.87
2018-05-17T04:23:03.031Z,75.16
2018-05-17T04:23:43.591Z,75.26
2018-05-17T04:24:24.161Z,75.26
2018-05-17T04:25:04.724Z,75.35
2018-05-17T04:25:45.287Z,75.35
2018-05-17T04:26:25.931Z,74.68
2018-05-17T04:27:06.435Z,74.97
2018-05-17T04:27:47.022Z,75.35
2018-05-17T04:28:27.585Z,74.77
2018-05-17T04:29:09.278Z,75.16
2018-05-17T04:29:50.385Z,74.87
2018-05-17T04:30:32.048Z,75.07
2018-05-17T04:31:13.037Z,74.97
2018-05-17T04:31:53.828Z,75.35
2018-05-17T04:32:34.394Z,75.16
2018-05-17T04:33:14.964Z,74.77
2018-05-17T04:33:55.545Z,74.87
2018-05-17T04:34:36.105Z,74.68
2018-05-17T04:35:16.655Z,75.16
2018-05-17T04:35:57.206Z,75.16
2018-05-17T04:36:37.829Z,75.26
2018-05-17T04:37:18.387Z,74.97
2018-05-17T04:38:00.013Z,74.68
2018-05-17T04:38:39.915Z,74.77
2018-05-17T04:39:20.772Z,75.16
2018-05-17T04:40:02.764Z,74.97
2018-05-17T04:40:43.543Z,74.49
2018-05-17T04:41:24.512Z,74.87
2018-05-17T04:42:05.447Z,74.77
2018-05-17T04:42:48.044Z,74.68
2018-05-17T04:43:29.852Z,74.68
2018-05-17T04:44:10.898Z,74.87
2018-05-17T04:44:51.681Z,74.58
2018-05-17T04:45:32.729Z,74.3
2018-05-17T04:46:13.811Z,74.2
2018-05-17T04:46:54.718Z,74.01
2018-05-17T04:47:35.765Z,74.01
2018-05-17T04:48:17.516Z,74.2
2018-05-17T04:48:58.467Z,74.2
2018-05-17T04:49:39.461Z,74.2
2018-05-17T04:50:20.945Z,74.2
2018-05-17T04:51:01.953Z,74.49
2018-05-17T04:51:42.839Z,74.58
2018-05-17T04:52:23.804Z,74.87
2018-05-17T04:53:04.786Z,75.26
2018-05-17T04:53:45.866Z,74.97
2018-05-17T04:54:26.865Z,74.43
2018-05-17T04:55:07.879Z,74.4
2018-05-17T04:55:48.928Z,75.29
2018-05-17T04:56:29.758Z,76.15
2018-05-17T04:57:11.544Z,74.62
2018-05-17T04:57:53.389Z,73.66
2018-05-17T04:58:33.914Z,72.61
2018-05-17T04:59:15.681Z,72.52
2018-05-17T04:59:59.888Z,72.23
2018-05-17T05:00:40.117Z,72.52
2018-05-17T05:01:22.411Z,72.71
2018-05-17T05:02:04.383Z,72.8
2018-05-17T05:02:47.003Z,72.52
2018-05-17T05:03:34.400Z,72.42
2018-05-17T05:04:17.406Z,72.61
2018-05-17T05:05:02.375Z,72.99
2018-05-17T05:05:50.590Z,72.61
2018-05-17T05:06:34.914Z,72.52
2018-05-17T05:07:22.452Z,71.94
2018-05-17T05:08:04.124Z,72.03
2018-05-17T05:08:46.028Z,71.94
2018-05-17T05:09:31.448Z,72.13
2018-05-17T05:10:15.648Z,71.94
2018-05-17T05:10:59.597Z,71.84
2018-05-17T05:11:41.182Z,72.23
2018-05-17T05:12:22.764Z,72.42
2018-05-17T05:13:07.027Z,72.23
2018-05-17T05:13:50.686Z,71.75
2018-05-17T05:14:42.471Z,71.75
2018-05-17T05:15:25.413Z,72.13
2018-05-17T05:16:09.071Z,72.32
2018-05-17T05:16:58.417Z,72.42
2018-05-17T05:17:40.660Z,72.8
2018-05-17T05:18:23.037Z,72.9
2018-05-17T05:19:05.394Z,72.8
2018-05-17T05:19:47.662Z,72.8
2018-05-17T05:20:32.986Z,72.32
2018-05-17T05:21:17.113Z,72.71
2018-05-17T05:22:00.592Z,72.71
2018-05-17T05:22:42.187Z,71.94
2018-05-17T05:23:25.064Z,71.56
2018-05-17T05:24:09.883Z,71.27
2018-05-17T05:24:51.368Z,71.84
2018-05-17T05:25:32.798Z,72.61
2018-05-17T05:26:15.296Z,74.33
2018-05-17T05:27:00.895Z,73.57
2018-05-17T05:27:44.388Z,72.71
2018-05-17T05:28:30.563Z,73.66
2018-05-17T05:29:16.114Z,72.84
2018-05-17T05:30:02.758Z,73.51
2018-05-17T05:30:45.079Z,74.27
2018-05-17T05:31:27.673Z,74.18
2018-05-17T05:32:14.679Z,73.07
2018-05-17T05:32:56.487Z,72.59
2018-05-17T05:33:42.489Z,71.05
2018-05-17T05:34:26.595Z,69.9
2018-05-17T05:35:08.574Z,69.71
2018-05-17T05:35:50.922Z,70.57
2018-05-17T05:36:33.114Z,68.79
2018-05-17T05:37:18.107Z,69.17
2018-05-17T05:38:03.912Z,69.26
2018-05-17T05:38:47.142Z,69.46
2018-05-17T05:39:29.299Z,67.63
2018-05-17T05:40:11.414Z,67.44
2018-05-17T05:40:54.363Z,68.12
2018-05-17T05:41:36.606Z,68.53
2018-05-17T05:42:19.457Z,68.05
2018-05-17T05:43:04.774Z,67.38
2018-05-17T05:43:50.635Z,66.52
2018-05-17T05:44:36.733Z,66.52
2018-05-17T05:45:19.558Z,66.71
2018-05-17T05:46:02.939Z,67.19
2018-05-17T05:46:43.518Z,66.52
2018-05-17T05:47:24.099Z,65.84
2018-05-17T05:48:04.702Z,65.94
2018-05-17T05:48:45.276Z,64.69
2018-05-17T05:49:25.922Z,65.17
2018-05-17T05:50:06.396Z,64.43
2018-05-17T05:50:46.975Z,64.72
2018-05-17T05:51:27.568Z,64.63
2018-05-17T05:52:10.923Z,64.05
2018-05-17T05:52:52.856Z,64.25
2018-05-17T05:53:39.439Z,63.96
2018-05-17T05:54:22.890Z,64.34
2018-05-17T05:55:08.496Z,62.9
2018-05-17T05:55:54.604Z,62.35
2018-05-17T05:56:36.173Z,62.13
2018-05-17T05:57:19.087Z,62.52
2018-05-17T05:58:02.287Z,63.51
2018-05-17T05:58:47.092Z,63.32
2018-05-17T05:59:31.178Z,63.32
2018-05-17T06:00:20.099Z,62.55
2018-05-17T06:01:05.450Z,61.71
2018-05-17T06:01:48.608Z,61.52
2018-05-17T06:02:31.907Z,61.43
2018-05-17T06:03:13.528Z,61.61
2018-05-17T06:03:54.919Z,60.85
2018-05-17T06:04:39.007Z,60.46
2018-05-17T06:05:23.356Z,59.99
2018-05-17T06:06:06.134Z,60.01
2018-05-17T06:06:49.937Z,60.78
2018-05-17T06:07:36.036Z,60.59
2018-05-17T06:08:17.936Z,60.59
2018-05-17T06:09:02.425Z,60.69
2018-05-17T06:09:44.364Z,60.21
2018-05-17T06:10:25.915Z,59.27
2018-05-17T06:11:09.304Z,58.6
2018-05-17T06:11:51.576Z,58.22
2018-05-17T06:12:33.685Z,57.64
2018-05-17T06:13:15.627Z,58.31
2018-05-17T06:13:58.229Z,58.22
2018-05-17T06:14:43.923Z,58.79
2018-05-17T06:15:27.778Z,58.6
2018-05-17T06:16:10.521Z,58.6
2018-05-17T06:16:52.779Z,58.31
2018-05-17T06:17:38.867Z,58.6
2018-05-17T06:18:21.106Z,58.05
2018-05-17T06:19:06.631Z,57.67
2018-05-17T06:19:49.802Z,56.9
2018-05-17T06:20:31.568Z,55.93
2018-05-17T06:21:15.529Z,56.12
2018-05-17T06:22:02.445Z,56.51
2018-05-17T06:22:46.909Z,56.32
2018-05-17T06:23:30.000Z,56.22
2018-05-17T06:24:13.045Z,55.93
2018-05-17T06:25:00.576Z,56.12
2018-05-17T06:25:47.126Z,55.55
2018-05-17T06:26:33.203Z,55.81
2018-05-17T06:27:15.522Z,56.58
2018-05-17T06:27:58.086Z,57.25
2018-05-17T06:28:42.387Z,57.25
2018-05-17T06:29:24.186Z,57.18
2018-05-17T06:30:08.053Z,56.12
2018-05-17T06:30:56.115Z,56.03
2018-05-17T06:31:39.691Z,56.22
2018-05-17T06:32:25.466Z,56.6
2018-05-17T06:33:13.530Z,56.6
2018-05-17T06:33:58.785Z,55.45
2018-05-17T06:34:40.050Z,55.65
2018-05-17T06:35:23.998Z,56.22
2018-05-17T06:36:06.398Z,56.32
2018-05-17T06:36:49.756Z,56.22
2018-05-17T06:37:31.575Z,56.03
2018-05-17T06:38:16.740Z,55.83
2018-05-17T06:39:04.583Z,56.6
2018-05-17T06:39:55.723Z,56.51
2018-05-17T06:40:38.297Z,56.12
2018-05-17T06:41:18.995Z,55.55
2018-05-17T06:42:01.401Z,56.03
2018-05-17T06:42:43.856Z,55.55
2018-05-17T06:43:28.423Z,55.55
2018-05-17T06:44:14.690Z,56.03
2018-05-17T06:44:58.009Z,55.83
2018-05-17T06:45:42.189Z,56.9
2018-05-17T06:46:25.444Z,56.6
2018-05-17T06:47:07.028Z,56.03
2018-05-17T06:47:51.189Z,55.26
2018-05-17T06:48:34.283Z,55.45
2018-05-17T06:49:15.805Z,55.45
2018-05-17T06:50:00.455Z,55.93
2018-05-17T06:50:43.057Z,55.93
2018-05-17T06:51:25.203Z,56.32
2018-05-17T06:52:08.453Z,56.41
2018-05-17T06:52:52.464Z,57.18
2018-05-17T06:53:34.072Z,56.12
2018-05-17T06:54:18.926Z,55.93
2018-05-17T06:55:00.402Z,55.93
2018-05-17T06:55:43.491Z,56.12
2018-05-17T06:56:25.690Z,55.93
2018-05-17T06:57:08.694Z,55.65
2018-05-17T06:57:54.426Z,55.83
2018-05-17T06:58:39.004Z,56.6
2018-05-17T06:59:22.902Z,56.9
2018-05-17T07:00:10.164Z,56.6
2018-05-17T07:00:56.204Z,56.99
2018-05-17T07:01:45.296Z,56.32
2018-05-17T07:02:30.367Z,56.15
2018-05-17T07:03:14.353Z,56.63
2018-05-17T07:03:57.243Z,56.22
2018-05-17T07:04:40.774Z,56.05
2018-05-17T07:05:24.152Z,56.05
2018-05-17T07:06:06.290Z,56.25
2018-05-17T07:06:49.379Z,56.54
2018-05-17T07:07:31.251Z,56.82
2018-05-17T07:08:18.537Z,56.35
2018-05-17T07:09:02.083Z,55.96
2018-05-17T07:09:45.334Z,55.67
2018-05-17T07:10:29.051Z,55.57
2018-05-17T07:11:12.209Z,56.05
2018-05-17T07:11:56.423Z,56.05
2018-05-17T07:12:38.906Z,55.38
2018-05-17T07:13:26.253Z,55.77
2018-05-17T07:14:11.854Z,55.87
2018-05-17T07:15:00.866Z,56.09
2018-05-17T07:15:41.571Z,56.37
2018-05-17T07:16:23.808Z,56.18
2018-05-17T07:17:08.735Z,55.99
2018-05-17T07:17:51.853Z,55.89
2018-05-17T07:18:34.932Z,55.41
2018-05-17T07:19:26.801Z,56.09
2018-05-17T07:20:18.627Z,54.93
2018-05-17T07:21:09.091Z,54.44
2018-05-17T07:21:58.966Z,54.54
2018-05-17T07:22:42.972Z,54.93
2018-05-17T07:23:24.360Z,54.9
2018-05-17T07:24:10.609Z,54.52
2018-05-17T07:24:53.642Z,54.9
2018-05-17T07:25:38.823Z,55.29
2018-05-17T07:26:21.416Z,55.38
2018-05-17T07:27:04.749Z,55.19
2018-05-17T07:27:47.174Z,55.09
2018-05-17T07:28:33.788Z,55.19
2018-05-17T07:29:15.433Z,54.71
2018-05-17T07:29:56.875Z,55.19
2018-05-17T07:30:41.520Z,55.96
2018-05-17T07:31:22.767Z,56.54
2018-05-17T07:32:09.692Z,56.63
2018-05-17T07:32:52.438Z,55.89
2018-05-17T07:33:38.726Z,55.31
2018-05-17T07:34:18.234Z,54.44
2018-05-17T07:35:03.065Z,54.44
2018-05-17T07:35:47.260Z,55.41
2018-05-17T07:36:31.742Z,55.51
2018-05-17T07:37:19.217Z,55.89
2018-05-17T07:38:06.462Z,53.87
2018-05-17T07:38:59.345Z,53.87
2018-05-17T07:39:48.810Z,54.54
2018-05-17T07:40:35.489Z,54.06
2018-05-17T07:41:18.721Z,54.44
2018-05-17T07:42:03.373Z,55.57
2018-05-17T07:42:47.731Z,55.87
2018-05-17T07:43:32.271Z,55.48
2018-05-17T07:44:16.989Z,56.35
2018-05-17T07:45:00.990Z,56.44
2018-05-17T07:45:42.230Z,55.96
2018-05-17T07:46:24.717Z,56.82
2018-05-17T07:47:07.498Z,56.73
2018-05-17T07:47:49.461Z,56.73
2018-05-17T07:48:32.722Z,56.63
2018-05-17T07:49:18.466Z,56.73
2018-05-17T07:50:00.143Z,57.31
2018-05-17T07:50:44.560Z,57.4
2018-05-17T07:51:29.478Z,58.44
2018-05-17T07:52:13.038Z,58.56
2018-05-17T07:52:57.134Z,58.24
2018-05-17T07:53:43.572Z,58.65
2018-05-17T07:54:26.276Z,58.47
2018-05-17T07:55:10.734Z,59.14
2018-05-17T07:55:52.129Z,59.04
2018-05-17T07:56:36.201Z,58.72
2018-05-17T07:57:19.570Z,58.75
2018-05-17T07:58:04.949Z,58.72
2018-05-17T07:58:49.959Z,59.2
2018-05-17T07:59:32.694Z,58.92
2018-05-17T08:00:17.695Z,59.11
2018-05-17T08:01:01.856Z,58.34
2018-05-17T08:01:43.942Z,58.63
2018-05-17T08:02:28.190Z,59.47
2018-05-17T08:03:09.526Z,60.62
2018-05-17T08:03:52.515Z,59.88
2018-05-17T08:04:35.506Z,60.75
2018-05-17T08:05:20.495Z,60.55
2018-05-17T08:06:04.557Z,60.36
2018-05-17T08:06:46.588Z,60.36
2018-05-17T08:07:29.698Z,59.4
2018-05-17T08:08:12.506Z,59.78
2018-05-17T08:08:55.337Z,59.4
2018-05-17T08:09:35.915Z,59.01
2018-05-17T08:10:16.478Z,59.88
2018-05-17T08:10:57.061Z,60.55
2018-05-17T08:11:37.624Z,60.36
2018-05-17T08:12:18.215Z,59.37
2018-05-17T08:12:58.800Z,59.75
2018-05-17T08:13:39.358Z,59.75
2018-05-17T08:14:19.927Z,60.04
2018-05-17T08:15:00.485Z,60.81
2018-05-17T08:15:41.101Z,61
2018-05-17T08:16:21.666Z,60.24
2018-05-17T08:17:02.252Z,60.42
2018-05-17T08:17:42.814Z,60.52
2018-05-17T08:18:23.381Z,61
2018-05-17T08:19:03.963Z,61.58
2018-05-17T08:19:44.525Z,61.39
2018-05-17T08:20:25.112Z,61.49
2018-05-17T08:21:05.707Z,61.29
2018-05-17T08:21:46.265Z,62.16
2018-05-17T08:22:26.875Z,61.39
2018-05-17T08:23:07.449Z,62.06
2018-05-17T08:23:48.493Z,62.38
2018-05-17T08:24:29.110Z,62.67
2018-05-17T08:25:09.707Z,62.38
2018-05-17T08:25:50.288Z,62.12
2018-05-17T08:26:30.888Z,62.7
2018-05-17T08:27:11.452Z,60.77
2018-05-17T08:27:52.046Z,59.91
2018-05-17T08:28:32.601Z,59.52
2018-05-17T08:29:13.162Z,60.49
2018-05-17T08:29:53.722Z,60.42
2018-05-17T08:30:34.275Z,60.71
2018-05-17T08:31:14.858Z,59.94
2018-05-17T08:31:55.423Z,58.97
2018-05-17T08:32:35.983Z,58.69
2018-05-17T08:33:16.569Z,57.43
2018-05-17T08:33:57.139Z,57.53
2018-05-17T08:34:37.747Z,58.2
2018-05-17T08:35:18.319Z,57.92
2018-05-17T08:35:58.892Z,57.53
2018-05-17T08:36:39.488Z,57.53
2018-05-17T08:37:20.029Z,57.62
2018-05-17T08:38:00.627Z,57.92
2018-05-17T08:38:41.178Z,58.69
2018-05-17T08:39:22.508Z,59.17
2018-05-17T08:40:03.090Z,60.71
2018-05-17T08:40:43.685Z,59.36
2018-05-17T08:41:24.249Z,58.69
2018-05-17T08:42:04.797Z,58.4
2018-05-17T08:42:45.389Z,57.34
2018-05-17T08:43:25.952Z,57.62
2018-05-17T08:44:06.506Z,58.2
2018-05-17T08:44:47.073Z,57.62
2018-05-17T08:45:27.619Z,56.76
2018-05-17T08:46:08.187Z,57.53
2018-05-17T08:46:48.720Z,57.24
2018-05-17T08:47:29.277Z,58.01
2018-05-17T08:48:09.855Z,57.72
2018-05-17T08:48:50.404Z,57.53
2018-05-17T08:49:30.967Z,57.92
2018-05-17T08:50:11.544Z,57.34
2018-05-17T08:50:52.114Z,57.34
2018-05-17T08:51:32.689Z,57.62
2018-05-17T08:52:13.261Z,57.82
2018-05-17T08:52:53.852Z,56.76
2018-05-17T08:53:34.418Z,56.66
2018-05-17T08:54:15.007Z,57.24
2018-05-17T08:54:55.552Z,57.53
2018-05-17T08:55:36.132Z,57.92
2018-05-17T08:56:16.705Z,57.72
2018-05-17T08:56:57.274Z,57.72
2018-05-17T08:57:37.856Z,57.31
2018-05-17T08:58:18.428Z,58.75
2018-05-17T08:58:59.006Z,58.85
2018-05-17T08:59:39.601Z,57.69